Dzaoudzi, Comoros
Current Conditions -  °F | °C
As of 7:30 AM on Thursday 27 Nov 2014 (Local Time) from FMCZ Reporting Station
Few Clouds Few Clouds  
Wind Chill: 29°   Ceiling: Unl
Heat Index: 34°   Visibility: 6mi
Dew Point: 24°   Wind: 3mph
Humidity: 74%   Direction: 340°NNW
Pressure: 29.83"   Gusts: NA
Location:  12.8°S, 45.28°E
Report Text: FMCZ 270430Z 34003KT 300V360 9999 FEW022 29/24 Q1010 NOSIG
Loading
Personal Weather Stations






























Interactive Weather Map New forecast layout! Learn more

10-Day Weather Forecast

Advertisements
Track Severe Weather on mobile